Time;durP1;ratioP1;P1;durP2;ratioP2;P2;SDS_P1;SDS_P2;PMS_P1;PMS_P2;Temp;Humidity;BMP_temperature;BMP_pressure;BME280_temperature;BME280_humidity;BME280_pressure;Samples;Min_cycle;Max_cycle;Signal;HPM_P1;HPM_P2
2022/03/25 00:00:47;;;;;;;27.23;13.83;;;3.50;99.90;;;;;;5093420;28;20202;-68
2022/03/25 00:03:14;;;;;;;30.83;14.07;;;3.60;99.90;;;;;;5095404;28;20528;-68
2022/03/25 00:05:41;;;;;;;26.47;13.73;;;3.60;99.90;;;;;;5102626;28;20288;-68
2022/03/25 00:08:08;;;;;;;31.30;14.07;;;3.70;99.90;;;;;;5092921;28;20223;-68
2022/03/25 00:10:35;;;;;;;27.03;13.67;;;3.60;99.90;;;;;;5093007;28;20288;-68
2022/03/25 00:13:02;;;;;;;29.63;14.13;;;3.50;99.90;;;;;;5093134;28;20297;-68
2022/03/25 00:15:30;;;;;;;25.53;12.57;;;3.50;1.00;;;;;;5092963;28;20276;-68
2022/03/25 00:17:57;;;;;;;27.90;13.63;;;3.40;99.90;;;;;;5092532;28;20281;-68
2022/03/25 00:20:24;;;;;;;23.63;11.43;;;3.40;1.00;;;;;;5093024;28;20263;-68
2022/03/25 00:22:51;;;;;;;28.43;12.40;;;3.40;1.00;;;;;;5093108;28;20280;-68
2022/03/25 00:25:18;;;;;;;22.50;11.70;;;3.30;99.90;;;;;;5093196;28;20289;-68
2022/03/25 00:27:45;;;;;;;23.57;11.90;;;3.20;99.90;;;;;;5092463;28;20308;-68
2022/03/25 00:30:13;;;;;;;23.23;11.67;;;3.20;1.00;;;;;;5092620;28;20244;-68
2022/03/25 00:32:42;;;;;;;29.33;11.70;;;3.20;1.00;;;;;;5093001;28;20285;-68
2022/03/25 00:35:10;;;;;;;23.30;11.30;;;3.20;1.00;;;;;;5093440;28;20538;-68
2022/03/25 00:37:37;;;;;;;23.70;10.63;;;3.30;1.00;;;;;;5092615;28;20713;-68
2022/03/25 00:40:06;;;;;;;28.20;11.60;;;3.40;99.90;;;;;;5092066;28;20249;-68
2022/03/25 00:42:33;;;;;;;27.00;12.93;;;3.30;99.90;;;;;;5089710;28;20237;-68
2022/03/25 00:45:02;;;;;;;24.90;11.50;;;3.30;99.90;;;;;;5092113;28;20223;-68
2022/03/25 00:47:28;;;;;;;26.60;11.53;;;3.20;99.90;;;;;;5091971;28;20215;-68
2022/03/25 00:49:57;;;;;;;27.70;12.20;;;3.00;99.90;;;;;;5092991;28;20201;-68
2022/03/25 00:52:24;;;;;;;25.20;12.80;;;3.00;99.90;;;;;;5091449;28;20205;-68
2022/03/25 00:54:51;;;;;;;25.07;12.53;;;3.00;1.00;;;;;;5092377;28;20233;-68
2022/03/25 00:57:19;;;;;;;24.83;11.80;;;3.00;1.00;;;;;;5091580;28;20609;-68
2022/03/25 00:59:46;;;;;;;28.00;12.90;;;3.00;1.00;;;;;;5092317;28;20209;-68
2022/03/25 01:02:13;;;;;;;27.00;12.87;;;2.80;1.00;;;;;;5091830;28;20276;-68
2022/03/25 01:04:46;;;;;;;25.00;11.93;;;2.80;1.00;;;;;;5091644;28;20293;-68
2022/03/25 01:07:15;;;;;;;24.37;10.33;;;2.80;1.00;;;;;;5091645;28;20222;-68
2022/03/25 01:09:41;;;;;;;25.37;12.17;;;2.40;1.00;;;;;;5092486;28;20289;-68
2022/03/25 01:12:09;;;;;;;25.73;11.90;;;2.00;97.10;;;;;;5091887;28;20208;-68
2022/03/25 01:14:36;;;;;;;25.73;13.60;;;2.10;99.90;;;;;;5091505;28;20209;-68
2022/03/25 01:17:04;;;;;;;27.73;12.00;;;2.10;99.90;;;;;;5091593;28;20202;-68
2022/03/25 01:19:31;;;;;;;26.70;11.90;;;2.30;99.90;;;;;;5091365;28;20296;-68
2022/03/25 01:21:58;;;;;;;27.07;13.03;;;2.20;1.00;;;;;;5092213;28;20281;-68
2022/03/25 01:24:28;;;;;;;29.97;12.83;;;2.20;1.00;;;;;;5090214;28;20201;-68
2022/03/25 01:26:55;;;;;;;27.60;13.30;;;2.20;1.00;;;;;;5091603;28;20304;-68
2022/03/25 01:29:21;;;;;;;26.40;13.13;;;2.40;99.90;;;;;;5091801;28;20200;-68
2022/03/25 01:31:49;;;;;;;29.93;13.40;;;2.50;99.90;;;;;;5091232;28;20288;-68
2022/03/25 01:34:16;;;;;;;30.83;12.53;;;2.50;1.00;;;;;;5090860;28;20209;-68
2022/03/25 01:36:43;;;;;;;25.80;12.57;;;2.40;1.00;;;;;;5091504;28;20652;-68
2022/03/25 01:39:10;;;;;;;26.00;12.53;;;2.20;1.00;;;;;;5090377;28;20213;-68
2022/03/25 01:41:38;;;;;;;28.37;12.57;;;2.00;1.00;;;;;;5092184;28;20201;-68
2022/03/25 01:44:05;;;;;;;24.27;11.93;;;1.80;1.00;;;;;;5091835;28;20622;-68
2022/03/25 01:46:33;;;;;;;25.57;12.47;;;1.90;99.90;;;;;;5091164;28;20664;-68
2022/03/25 01:49:00;;;;;;;28.33;12.70;;;2.10;99.90;;;;;;5091659;28;20194;-68
2022/03/25 01:51:32;;;;;;;28.33;12.00;;;2.30;99.90;;;;;;5091027;28;20207;-68
2022/03/25 01:54:02;;;;;;;29.80;12.37;;;2.30;99.90;;;;;;5092289;28;20225;-68
2022/03/25 01:56:29;;;;;;;27.20;12.33;;;2.10;1.00;;;;;;5091393;28;20220;-68
2022/03/25 01:58:57;;;;;;;26.27;13.10;;;2.00;1.00;;;;;;5091508;28;20216;-68
2022/03/25 02:01:26;;;;;;;27.27;12.67;;;2.00;1.00;;;;;;5091548;28;20198;-67
2022/03/25 02:03:53;;;;;;;27.93;12.60;;;2.00;1.00;;;;;;5090920;28;20209;-68
2022/03/25 02:06:20;;;;;;;27.47;11.70;;;2.20;1.00;;;;;;5091704;28;20292;-68
2022/03/25 02:08:47;;;;;;;25.10;11.70;;;2.20;1.00;;;;;;5090025;28;20202;-68
2022/03/25 02:11:14;;;;;;;25.80;12.70;;;1.90;1.00;;;;;;5091483;28;20666;-68
2022/03/25 02:13:41;;;;;;;32.47;12.83;;;1.60;1.00;;;;;;5090349;28;20198;-68
2022/03/25 02:16:09;;;;;;;24.27;11.67;;;1.60;1.00;;;;;;5091454;28;20202;-68
2022/03/25 02:18:36;;;;;;;25.43;11.90;;;1.00;1.00;;;;;;5091113;28;20565;-68
2022/03/25 02:21:03;;;;;;;24.87;12.10;;;0.90;1.00;;;;;;5090951;28;20206;-68
2022/03/25 02:23:31;;;;;;;28.17;12.60;;;1.00;1.00;;;;;;5090716;28;20201;-68
2022/03/25 02:25:59;;;;;;;25.00;12.70;;;1.00;99.90;;;;;;5090846;28;20243;-68
2022/03/25 02:28:26;;;;;;;26.07;12.33;;;1.30;1.00;;;;;;5091177;28;20222;-68
2022/03/25 02:30:53;;;;;;;27.43;12.50;;;1.50;1.00;;;;;;5091296;28;20727;-68
2022/03/25 02:33:20;;;;;;;26.73;12.70;;;1.50;99.90;;;;;;5090342;28;20300;-68
2022/03/25 02:35:49;;;;;;;27.27;12.63;;;1.60;1.00;;;;;;5077696;28;20414;-68
2022/03/25 02:38:18;;;;;;;28.57;13.53;;;1.50;99.90;;;;;;5094966;28;20194;-68
2022/03/25 02:40:46;;;;;;;28.20;13.07;;;1.60;1.00;;;;;;5093914;28;20226;-68
2022/03/25 02:43:15;;;;;;;26.80;13.07;;;1.50;99.90;;;;;;5094580;28;20500;-68
2022/03/25 02:45:42;;;;;;;28.50;13.17;;;1.60;99.90;;;;;;5094284;28;20200;-68
2022/03/25 02:48:11;;;;;;;29.60;14.43;;;1.50;63.90;;;;;;5077262;28;20224;-68
2022/03/25 02:50:38;;;;;;;28.73;13.07;;;1.10;1.00;;;;;;5074532;28;20209;-68
2022/03/25 02:53:05;;;;;;;25.87;12.93;;;0.90;92.50;;;;;;5093182;28;20213;-68
2022/03/25 02:55:32;;;;;;;30.23;13.47;;;0.70;1.00;;;;;;5094728;28;20295;-68
2022/03/25 02:58:00;;;;;;;25.97;13.27;;;1.00;99.90;;;;;;5093301;28;20189;-68
2022/03/25 03:00:27;;;;;;;27.97;13.50;;;1.10;99.90;;;;;;5093958;28;20209;-68
2022/03/25 03:02:54;;;;;;;26.80;12.70;;;1.10;1.00;;;;;;5095036;28;20197;-67
2022/03/25 03:05:22;;;;;;;28.53;13.23;;;1.20;1.00;;;;;;5079067;28;20190;-68
2022/03/25 03:07:49;;;;;;;27.43;12.73;;;1.10;1.00;;;;;;5093293;28;20584;-67
2022/03/25 03:10:17;;;;;;;26.13;13.23;;;1.20;1.00;;;;;;5094822;28;20574;-68
2022/03/25 03:12:44;;;;;;;27.20;13.10;;;1.40;1.00;;;;;;5090247;28;20202;-68
2022/03/25 03:15:15;;;;;;;24.93;12.43;;;1.50;1.00;;;;;;5094708;28;20204;-67
2022/03/25 03:17:42;;;;;;;31.67;14.23;;;1.40;99.90;;;;;;5094086;28;20194;-68
2022/03/25 03:20:10;;;;;;;31.97;12.97;;;1.40;99.90;;;;;;5093325;28;20213;-68
2022/03/25 03:22:37;;;;;;;27.27;12.67;;;1.50;1.00;;;;;;5094231;28;20205;-68
2022/03/25 03:25:05;;;;;;;24.97;13.33;;;1.50;79.80;;;;;;5094384;28;20208;-68
2022/03/25 03:27:32;;;;;;;27.37;13.37;;;1.50;99.90;;;;;;5093600;28;20223;-68
2022/03/25 03:29:59;;;;;;;27.50;13.73;;;1.70;99.90;;;;;;5094315;28;20208;-68
2022/03/25 03:32:27;;;;;;;28.40;13.50;;;1.60;1.00;;;;;;5093418;28;20254;-69
2022/03/25 03:34:54;;;;;;;28.60;13.60;;;1.70;91.20;;;;;;5093916;28;20202;-68
2022/03/25 03:37:21;;;;;;;25.97;12.70;;;1.60;1.00;;;;;;5093801;28;20198;-67
2022/03/25 03:39:49;;;;;;;26.37;13.53;;;1.70;93.90;;;;;;5092768;28;20212;-67
2022/03/25 03:42:16;;;;;;;28.17;13.83;;;1.50;1.00;;;;;;5094410;28;20198;-68
2022/03/25 03:44:43;;;;;;;29.43;13.30;;;1.60;1.00;;;;;;5094081;28;20202;-68
2022/03/25 03:47:10;;;;;;;29.87;13.33;;;1.70;1.00;;;;;;5092529;28;20225;-68
2022/03/25 03:49:39;;;;;;;25.83;13.30;;;1.80;1.00;;;;;;5093955;28;20605;-68
2022/03/25 03:52:08;;;;;;;29.17;13.23;;;1.90;1.00;;;;;;5093222;28;20212;-68
2022/03/25 03:54:36;;;;;;;23.10;11.03;;;1.60;70.50;;;;;;5093158;28;20213;-67
2022/03/25 03:57:04;;;;;;;24.57;12.57;;;0.80;99.90;;;;;;5093898;28;20656;-68
2022/03/25 03:59:30;;;;;;;25.57;12.30;;;0.70;1.00;;;;;;5092774;28;20201;-68
2022/03/25 04:01:57;;;;;;;25.27;13.13;;;0.90;1.00;;;;;;5097852;28;20201;-67
2022/03/25 04:04:24;;;;;;;24.93;11.77;;;1.00;1.00;;;;;;5101308;28;20215;-67
2022/03/25 04:06:52;;;;;;;28.13;11.93;;;1.00;99.90;;;;;;5093289;28;20201;-68
2022/03/25 04:09:19;;;;;;;26.07;11.90;;;1.00;1.00;;;;;;5093206;28;20307;-68
2022/03/25 04:11:46;;;;;;;29.90;12.40;;;0.90;49.70;;;;;;5093237;28;20660;-68
2022/03/25 04:14:13;;;;;;;25.93;12.50;;;1.00;99.90;;;;;;5093022;28;20197;-68
2022/03/25 04:16:40;;;;;;;24.00;11.20;;;0.90;1.00;;;;;;5093468;28;20566;-67
2022/03/25 04:19:07;;;;;;;28.33;13.03;;;1.00;99.90;;;;;;5092294;28;20190;-68
2022/03/25 04:21:34;;;;;;;24.87;11.97;;;1.00;1.00;;;;;;5092677;28;20304;-68
2022/03/25 04:24:02;;;;;;;28.43;13.57;;;1.00;1.00;;;;;;5092932;28;20229;-68
2022/03/25 04:26:29;;;;;;;27.90;12.63;;;1.20;1.00;;;;;;5092429;28;20201;-68
2022/03/25 04:28:56;;;;;;;23.43;10.97;;;1.20;99.90;;;;;;5091904;28;20560;-68
2022/03/25 04:31:23;;;;;;;24.70;11.57;;;1.20;4.70;;;;;;5092350;28;20201;-68
2022/03/25 04:33:50;;;;;;;27.87;12.57;;;1.30;99.90;;;;;;5092828;28;20198;-68
2022/03/25 04:36:17;;;;;;;27.33;11.70;;;1.30;99.90;;;;;;5093105;28;20205;-68
2022/03/25 04:38:44;;;;;;;25.93;11.93;;;1.40;99.90;;;;;;5092409;28;20210;-67
2022/03/25 04:41:13;;;;;;;24.30;11.93;;;1.40;99.90;;;;;;5092564;28;20216;-68
2022/03/25 04:43:40;;;;;;;27.77;13.47;;;1.30;1.00;;;;;;5093305;28;20224;-68
2022/03/25 04:46:08;;;;;;;27.33;13.47;;;1.30;1.00;;;;;;5092435;28;20209;-68
2022/03/25 04:48:36;;;;;;;24.23;11.60;;;1.30;1.00;;;;;;5089746;28;20217;-68
2022/03/25 04:51:03;;;;;;;29.67;11.83;;;1.10;21.90;;;;;;5088221;28;20691;-68
2022/03/25 04:53:31;;;;;;;25.67;11.97;;;0.90;1.00;;;;;;5092301;28;20209;-68
2022/03/25 04:55:58;;;;;;;25.53;11.47;;;0.80;92.80;;;;;;5091857;28;20193;-68
2022/03/25 04:58:26;;;;;;;24.70;11.33;;;0.80;99.90;;;;;;5090947;28;20219;-68
2022/03/25 05:00:53;;;;;;;36.00;17.33;;;0.90;1.00;;;;;;5092059;28;20197;-68
2022/03/25 05:03:20;;;;;;;28.87;12.23;;;1.10;1.00;;;;;;5091613;28;20667;-68
2022/03/25 05:05:47;;;;;;;31.50;13.03;;;1.10;1.00;;;;;;5092145;28;20549;-68
2022/03/25 05:08:14;;;;;;;29.33;12.33;;;1.20;1.00;;;;;;5091370;28;20236;-68
2022/03/25 05:10:40;;;;;;;23.30;11.77;;;1.00;99.90;;;;;;5091916;28;20564;-68
2022/03/25 05:13:08;;;;;;;28.83;14.13;;;1.00;1.00;;;;;;5091757;28;20560;-75
2022/03/25 05:15:37;;;;;;;28.40;12.53;;;1.00;1.00;;;;;;5091982;28;20216;-67
2022/03/25 05:18:04;;;;;;;24.67;11.57;;;1.00;1.00;;;;;;5091280;28;20633;-68
2022/03/25 05:20:30;;;;;;;29.27;12.53;;;1.10;97.90;;;;;;5091849;28;20211;-68
2022/03/25 05:22:57;;;;;;;25.13;11.17;;;1.20;1.00;;;;;;5091875;28;20674;-68
2022/03/25 05:25:25;;;;;;;27.30;12.40;;;1.10;1.00;;;;;;5088051;28;20664;-68
2022/03/25 05:27:53;;;;;;;25.57;11.77;;;1.10;1.00;;;;;;5090886;28;20217;-68
2022/03/25 05:30:22;;;;;;;28.10;12.37;;;1.10;1.00;;;;;;5087099;28;20206;-68
2022/03/25 05:32:50;;;;;;;31.30;12.73;;;1.30;1.00;;;;;;5091444;28;20263;-68
2022/03/25 05:35:17;;;;;;;29.83;12.50;;;0.90;99.90;;;;;;5090509;28;20616;-68
2022/03/25 05:37:44;;;;;;;28.37;13.17;;;1.20;1.00;;;;;;5091288;28;20201;-68
2022/03/25 05:40:13;;;;;;;28.40;12.43;;;1.30;23.90;;;;;;5090748;28;20209;-68
2022/03/25 05:42:39;;;;;;;27.07;12.73;;;1.40;99.90;;;;;;5089693;28;20656;-68
2022/03/25 05:45:08;;;;;;;24.23;11.33;;;1.70;1.00;;;;;;5092113;28;20648;-68
2022/03/25 05:47:36;;;;;;;24.97;12.20;;;1.70;1.00;;;;;;5089757;28;20201;-68
2022/03/25 05:50:06;;;;;;;26.63;12.40;;;1.80;1.00;;;;;;5088880;28;20213;-68
2022/03/25 05:52:33;;;;;;;27.47;12.57;;;1.70;1.00;;;;;;5091481;28;20205;-68
2022/03/25 05:54:59;;;;;;;25.13;12.30;;;1.80;1.00;;;;;;5091226;28;20644;-68
2022/03/25 05:57:26;;;;;;;25.57;12.43;;;1.70;99.90;;;;;;5090944;28;20205;-68
2022/03/25 05:59:57;;;;;;;25.27;11.87;;;2.00;1.00;;;;;;5086438;28;20672;-68
2022/03/25 06:02:24;;;;;;;25.13;12.03;;;2.30;99.90;;;;;;5087273;28;20655;-68
2022/03/25 06:04:51;;;;;;;25.43;12.93;;;3.00;1.00;;;;;;5091203;28;20208;-68
2022/03/25 06:07:20;;;;;;;26.57;11.87;;;3.80;99.90;;;;;;5090981;28;20229;-68
2022/03/25 06:09:46;;;;;;;27.47;12.53;;;4.20;87.20;;;;;;5092096;28;20213;-68
2022/03/25 06:12:14;;;;;;;22.97;12.03;;;4.60;1.00;;;;;;5095507;28;20213;-68
2022/03/25 06:14:41;;;;;;;27.33;13.17;;;4.40;43.00;;;;;;5095422;28;20211;-68
2022/03/25 06:17:07;;;;;;;25.67;12.27;;;4.20;1.00;;;;;;5095221;28;20198;-68
2022/03/25 06:19:35;;;;;;;26.60;12.47;;;4.40;1.00;;;;;;5095357;28;20202;-68
2022/03/25 06:22:01;;;;;;;23.37;12.07;;;4.40;99.90;;;;;;5095025;28;20566;-68
2022/03/25 06:24:30;;;;;;;22.47;11.57;;;4.20;99.90;;;;;;5095104;28;20205;-68
2022/03/25 06:26:56;;;;;;;27.23;13.73;;;4.20;99.90;;;;;;5095220;28;20194;-69
2022/03/25 06:29:23;;;;;;;25.40;12.63;;;4.80;99.90;;;;;;5094460;28;20221;-68
2022/03/25 06:31:50;;;;;;;25.53;12.37;;;5.00;1.00;;;;;;5095131;28;20405;-68
2022/03/25 06:34:20;;;;;;;27.93;13.60;;;4.80;97.20;;;;;;5094666;28;20212;-68
2022/03/25 06:36:49;;;;;;;30.73;17.97;;;4.90;1.00;;;;;;5094809;28;20202;-68
2022/03/25 06:39:16;;;;;;;22.20;10.63;;;5.00;25.70;;;;;;5094362;28;20620;-68
2022/03/25 06:41:44;;;;;;;21.40;12.10;;;5.10;99.90;;;;;;5094368;28;20615;-69
2022/03/25 06:44:12;;;;;;;23.77;11.30;;;5.80;1.00;;;;;;5095151;28;20675;-68
2022/03/25 06:46:39;;;;;;;23.27;12.27;;;5.80;1.00;;;;;;5094854;28;20738;-68
2022/03/25 06:49:07;;;;;;;23.40;11.23;;;6.10;99.90;;;;;;5094343;28;20577;-69
2022/03/25 06:51:34;;;;;;;27.63;12.80;;;6.30;22.10;;;;;;5094294;28;20208;-69
2022/03/25 06:54:03;;;;;;;19.67;11.27;;;6.20;1.00;;;;;;5094859;28;20197;-69
2022/03/25 06:56:33;;;;;;;24.27;11.53;;;6.50;1.00;;;;;;5094402;28;20201;-68
2022/03/25 06:59:03;;;;;;;21.73;11.97;;;6.30;1.00;;;;;;5092619;28;20213;-69
2022/03/25 07:01:32;;;;;;;23.30;11.70;;;6.10;93.40;;;;;;5091046;28;20542;-68
2022/03/25 07:04:00;;;;;;;25.33;13.20;;;6.50;99.90;;;;;;5089545;28;20208;-69
2022/03/25 07:06:27;;;;;;;28.73;12.83;;;6.30;19.30;;;;;;5094666;28;20659;-69
2022/03/25 07:08:56;;;;;;;23.43;12.70;;;5.80;99.90;;;;;;5093815;28;20213;-69
2022/03/25 07:11:24;;;;;;;26.47;13.57;;;6.00;1.00;;;;;;5094192;28;20308;-69
2022/03/25 07:13:52;;;;;;;24.53;12.27;;;6.20;1.00;;;;;;5094108;28;20626;-69
2022/03/25 07:16:20;;;;;;;26.53;13.30;;;5.90;1.00;;;;;;5094216;28;20213;-69
2022/03/25 07:18:47;;;;;;;29.50;13.47;;;5.90;1.00;;;;;;5093117;28;20201;-68
2022/03/25 07:21:14;;;;;;;26.80;13.03;;;6.50;1.00;;;;;;5093345;28;20212;-69
2022/03/25 07:23:41;;;;;;;25.33;13.43;;;7.10;1.00;;;;;;5094028;28;20293;-69
2022/03/25 07:26:08;;;;;;;25.53;14.53;;;7.30;99.90;;;;;;5091787;28;20563;-69
2022/03/25 07:28:35;;;;;;;22.77;12.63;;;7.00;1.00;;;;;;5090833;28;20309;-69
2022/03/25 07:31:02;;;;;;;25.93;13.83;;;7.20;1.00;;;;;;5092632;28;20247;-69
2022/03/25 07:33:30;;;;;;;25.57;12.90;;;7.10;1.00;;;;;;5093418;28;20220;-69
2022/03/25 07:35:57;;;;;;;28.97;13.93;;;7.30;99.90;;;;;;5093652;28;20205;-69
2022/03/25 07:38:24;;;;;;;26.13;13.63;;;7.70;1.00;;;;;;5093619;28;20671;-70
2022/03/25 07:40:51;;;;;;;27.43;13.60;;;8.20;99.90;;;;;;5093252;28;20215;-69
2022/03/25 07:43:18;;;;;;;28.97;13.63;;;8.00;99.90;;;;;;5093817;28;20564;-69
2022/03/25 07:45:45;;;;;;;29.10;13.73;;;8.60;99.90;;;;;;5093573;28;20209;-69
2022/03/25 07:48:12;;;;;;;27.90;14.10;;;9.60;1.00;;;;;;5092908;28;20205;-69
2022/03/25 07:50:40;;;;;;;26.93;13.33;;;10.00;1.00;;;;;;5093147;28;20561;-69
2022/03/25 07:53:07;;;;;;;29.40;14.37;;;10.40;1.00;;;;;;5093463;28;20204;-69
2022/03/25 07:55:34;;;;;;;24.57;13.30;;;11.10;99.90;;;;;;5093347;28;20202;-69
2022/03/25 07:58:01;;;;;;;27.63;13.27;;;11.30;59.70;;;;;;5092910;28;20197;-70
2022/03/25 08:00:28;;;;;;;27.60;14.13;;;10.30;99.90;;;;;;5093186;28;20198;-69
2022/03/25 08:02:55;;;;;;;27.50;14.03;;;10.90;99.90;;;;;;5091985;28;20659;-69
2022/03/25 08:05:23;;;;;;;25.47;13.50;;;11.20;99.90;;;;;;5093596;28;21039;-69
2022/03/25 08:07:54;;;;;;;25.27;13.97;;;11.20;99.90;;;;;;5092817;28;20254;-69
2022/03/25 08:10:23;;;;;;;25.70;13.70;;;10.70;99.90;;;;;;5092900;28;20595;-69
2022/03/25 08:12:50;;;;;;;26.33;13.50;;;11.30;99.90;;;;;;5092452;28;20198;-69
2022/03/25 08:15:18;;;;;;;30.03;14.47;;;11.90;21.10;;;;;;5093053;28;20198;-70
2022/03/25 08:17:49;;;;;;;28.47;15.13;;;11.80;1.00;;;;;;5092554;28;20202;-69
2022/03/25 08:20:28;;;;;;;32.10;15.00;;;11.80;1.00;;;;;;5092603;28;20197;-70
2022/03/25 08:22:58;;;;;;;27.40;14.70;;;11.50;1.00;;;;;;5088523;28;20208;-69
2022/03/25 08:28:10;;;;;;;26.20;14.60;;;11.60;1.00;;;;;;5091597;28;20259;-69
2022/03/25 08:30:37;;;;;;;28.77;14.40;;;11.40;1.00;;;;;;5092984;28;20227;-69
2022/03/25 08:33:06;;;;;;;26.43;13.50;;;11.60;1.00;;;;;;5092372;28;20201;-70
2022/03/25 08:35:33;;;;;;;26.63;14.50;;;11.60;1.00;;;;;;5092522;28;20214;-69
2022/03/25 08:38:01;;;;;;;26.83;14.00;;;11.70;1.00;;;;;;5092165;28;20197;-75
2022/03/25 08:40:30;;;;;;;29.83;14.07;;;11.90;1.00;;;;;;5092140;28;20297;-70
2022/03/25 08:42:57;;;;;;;30.63;13.60;;;12.00;1.00;;;;;;5092627;28;20456;-70
2022/03/25 08:45:24;;;;;;;31.20;15.43;;;12.40;1.00;;;;;;5092665;28;20690;-70
2022/03/25 08:47:51;;;;;;;27.77;13.73;;;12.70;1.00;;;;;;5091616;28;20200;-70
2022/03/25 08:50:21;;;;;;;29.53;14.10;;;12.60;1.00;;;;;;5092200;28;20588;-70
2022/03/25 08:52:50;;;;;;;29.20;14.57;;;12.60;1.00;;;;;;5091559;28;20206;-70
2022/03/25 08:55:19;;;;;;;25.17;13.87;;;12.60;1.00;;;;;;5092057;28;20201;-70
2022/03/25 08:57:47;;;;;;;28.63;14.53;;;12.90;1.00;;;;;;5092010;28;20400;-70
2022/03/25 09:00:16;;;;;;;29.00;13.50;;;13.30;1.00;;;;;;5092393;28;20512;-70
2022/03/25 09:02:44;;;;;;;23.90;13.83;;;13.50;1.00;;;;;;5090152;28;20660;-70
2022/03/25 09:05:13;;;;;;;27.53;14.47;;;13.70;99.90;;;;;;5092794;28;20201;-70
2022/03/25 09:07:40;;;;;;;23.13;12.87;;;13.80;99.90;;;;;;5091736;28;20212;-70
2022/03/25 09:10:09;;;;;;;26.83;14.37;;;14.00;99.90;;;;;;5091657;28;20220;-70
2022/03/25 09:12:37;;;;;;;26.50;14.20;;;13.70;99.90;;;;;;5091994;28;20655;-70
2022/03/25 09:15:06;;;;;;;26.27;13.43;;;13.80;99.90;;;;;;5092272;28;20208;-70
2022/03/25 09:17:33;;;;;;;28.50;14.30;;;13.80;99.90;;;;;;5091171;28;20201;-70
2022/03/25 09:20:03;;;;;;;25.93;13.97;;;14.20;99.90;;;;;;5092119;28;20529;-70
2022/03/25 09:22:30;;;;;;;29.77;15.47;;;14.90;99.90;;;;;;5091960;28;20206;-70
2022/03/25 09:24:57;;;;;;;25.33;14.17;;;15.30;99.90;;;;;;5091451;28;20202;-70
2022/03/25 09:27:26;;;;;;;24.77;14.17;;;14.80;99.90;;;;;;5092964;28;20284;-70
2022/03/25 09:29:55;;;;;;;26.80;14.23;;;15.20;99.90;;;;;;5090240;28;20221;-70
2022/03/25 09:32:22;;;;;;;26.27;14.67;;;15.20;99.90;;;;;;5092425;28;20624;-70
2022/03/25 09:37:35;;;;;;;28.53;14.87;;;15.40;99.90;;;;;;5092592;28;20204;-70
2022/03/25 09:40:02;;;;;;;26.70;14.85;;;15.20;99.90;;;;;;5092088;28;20266;-70
2022/03/25 09:42:30;;;;;;;25.55;13.80;;;14.90;99.90;;;;;;5092061;28;20213;-70
2022/03/25 09:44:58;;;;;;;24.57;14.30;;;14.90;99.90;;;;;;5092027;28;20201;-70
2022/03/25 09:47:25;;;;;;;23.97;14.33;;;15.70;99.90;;;;;;5090586;28;20213;-70
2022/03/25 09:49:52;;;;;;;25.67;14.55;;;16.50;99.90;;;;;;5092256;28;20225;-70
2022/03/25 09:52:20;;;;;;;25.48;14.68;;;16.20;99.90;;;;;;5091472;28;20207;-71
2022/03/25 09:54:47;;;;;;;25.95;14.93;;;16.20;99.90;;;;;;5091540;28;20224;-71
2022/03/25 09:57:13;;;;;;;25.80;14.93;;;15.90;99.90;;;;;;5092473;28;20210;-71
2022/03/25 09:59:40;;;;;;;24.98;15.13;;;16.40;99.90;;;;;;5091187;28;20212;-71
2022/03/25 10:02:08;;;;;;;27.70;14.05;;;17.00;99.90;;;;;;5092459;28;20399;-71
2022/03/25 10:04:43;;;;;;;24.75;15.23;;;16.50;99.90;;;;;;5092080;28;20201;-71
2022/03/25 10:07:18;;;;;;;23.50;14.00;;;16.30;99.90;;;;;;5092021;28;20633;-70
2022/03/25 10:09:45;;;;;;;27.25;13.95;;;16.20;99.90;;;;;;5091436;28;20675;-70
2022/03/25 10:12:26;;;;;;;27.88;14.95;;;16.30;99.90;;;;;;5091151;28;20202;-70
2022/03/25 10:15:10;;;;;;;29.50;15.60;;;16.50;99.90;;;;;;5091774;28;20225;-70
2022/03/25 10:17:53;;;;;;;27.35;15.70;;;16.20;99.90;;;;;;5090342;28;20201;-70
2022/03/25 10:20:22;;;;;;;27.42;17.02;;;16.30;99.90;;;;;;5091913;28;20197;-70
2022/03/25 10:23:05;;;;;;;26.08;15.43;;;16.20;99.90;;;;;;5091619;28;20251;-71
2022/03/25 10:25:47;;;;;;;27.73;15.02;;;16.60;99.90;;;;;;5091822;28;20267;-71
2022/03/25 10:28:28;;;;;;;24.92;15.88;;;16.50;99.90;;;;;;5091255;28;20215;-71
2022/03/25 10:30:57;;;;;;;25.85;15.45;;;16.20;99.90;;;;;;5091749;28;20225;-71
2022/03/25 10:33:32;;;;;;;27.90;16.40;;;16.20;99.90;;;;;;5091662;28;20674;-70
2022/03/25 10:36:07;;;;;;;29.38;15.98;;;16.30;99.90;;;;;;5090920;28;20205;-70
2022/03/25 10:38:46;;;;;;;30.35;16.85;;;16.30;99.90;;;;;;5091311;28;20741;-71
2022/03/25 10:41:15;;;;;;;30.85;17.38;;;16.30;99.90;;;;;;5089344;28;20560;-71
2022/03/25 10:43:53;;;;;;;29.20;16.77;;;17.00;99.90;;;;;;5091007;28;20201;-71
2022/03/25 10:46:38;;;;;;;28.70;16.88;;;16.40;99.90;;;;;;5091218;28;20228;-71
2022/03/25 10:49:09;;;;;;;29.90;17.80;;;16.40;99.90;;;;;;5086777;28;20623;-71
2022/03/25 10:51:38;;;;;;;27.75;16.33;;;17.00;99.90;;;;;;5091030;28;20644;-71
2022/03/25 10:54:10;;;;;;;31.85;19.95;;;17.20;99.90;;;;;;5090984;28;20227;-71
2022/03/25 10:56:45;;;;;;;33.63;19.45;;;16.60;99.90;;;;;;5091762;28;20652;-70
2022/03/25 10:59:22;;;;;;;31.50;18.73;;;16.70;99.90;;;;;;5091556;28;20243;-70
2022/03/25 11:01:51;;;;;;;33.83;19.92;;;16.80;99.90;;;;;;5093808;28;20197;-71
2022/03/25 11:04:19;;;;;;;29.60;18.88;;;17.00;99.90;;;;;;5094162;28;20225;-71
2022/03/25 11:06:47;;;;;;;32.90;20.02;;;17.30;99.90;;;;;;5094486;28;20204;-71
2022/03/25 11:09:15;;;;;;;28.50;17.85;;;16.90;99.90;;;;;;5092505;28;20233;-71
2022/03/25 11:11:43;;;;;;;31.08;18.73;;;17.60;99.90;;;;;;5093749;28;20548;-71
2022/03/25 11:14:11;;;;;;;29.58;18.98;;;17.30;99.90;;;;;;5093734;28;20198;-71
2022/03/25 11:16:41;;;;;;;35.50;20.42;;;16.90;99.90;;;;;;5094275;28;20202;-71
2022/03/25 11:19:10;;;;;;;30.80;19.55;;;17.40;99.90;;;;;;5093180;28;20205;-71
2022/03/25 11:21:40;;;;;;;31.95;20.48;;;17.40;99.90;;;;;;5093955;28;20255;-71
2022/03/25 11:24:13;;;;;;;33.67;21.27;;;17.60;99.90;;;;;;5094180;28;20202;-71
2022/03/25 11:26:43;;;;;;;33.33;21.88;;;17.70;99.90;;;;;;5092449;28;20206;-71
2022/03/25 11:29:14;;;;;;;34.72;21.90;;;16.90;99.90;;;;;;5091142;28;20486;-71
2022/03/25 11:32:07;;;;;;;34.90;22.25;;;17.10;99.90;;;;;;5092163;28;20201;-71
2022/03/25 11:34:41;;;;;;;35.92;22.60;;;16.80;99.90;;;;;;5092890;28;20683;-71
2022/03/25 11:37:34;;;;;;;35.90;23.00;;;17.20;99.90;;;;;;5093959;28;20202;-70
2022/03/25 11:40:25;;;;;;;35.58;22.15;;;17.80;99.90;;;;;;5073043;28;20659;-71
2022/03/25 11:42:53;;;;;;;35.78;22.17;;;16.90;99.90;;;;;;5093618;28;20231;-71
2022/03/25 11:45:44;;;;;;;34.75;22.02;;;17.00;99.90;;;;;;5093636;28;20201;-71
2022/03/25 11:48:36;;;;;;;34.40;23.27;;;16.70;99.90;;;;;;5068777;28;20251;-71
2022/03/25 11:51:33;;;;;;;35.92;23.25;;;17.00;99.90;;;;;;5091430;28;20220;-71
2022/03/25 11:54:04;;;;;;;33.45;21.67;;;16.80;99.90;;;;;;5093734;28;20262;-71
2022/03/25 11:56:50;;;;;;;32.90;20.48;;;16.60;99.90;;;;;;5093146;28;20208;-71
2022/03/25 11:59:19;;;;;;;34.50;21.67;;;16.80;99.90;;;;;;5092861;28;20660;-70
2022/03/25 12:01:45;;;;;;;33.50;19.85;;;16.70;99.90;;;;;;5092983;28;20202;-71
2022/03/25 12:04:14;;;;;;;32.58;21.35;;;17.10;99.90;;;;;;5092946;28;20198;-71
2022/03/25 12:07:02;;;;;;;33.45;21.65;;;16.90;99.90;;;;;;5093195;28;20233;-71
2022/03/25 12:09:39;;;;;;;33.15;20.33;;;16.90;99.90;;;;;;5088523;28;20249;-74
2022/03/25 12:12:07;;;;;;;32.92;20.35;;;17.10;99.90;;;;;;5092676;28;20280;-75
2022/03/25 12:14:36;;;;;;;34.42;21.10;;;17.60;99.90;;;;;;5093098;28;20205;-75
2022/03/25 12:17:06;;;;;;;34.13;20.90;;;17.90;99.90;;;;;;5093369;28;20221;-75
2022/03/25 12:19:51;;;;;;;33.78;21.38;;;18.50;99.90;;;;;;5091885;28;20212;-75
2022/03/25 12:22:33;;;;;;;31.52;20.38;;;18.10;99.90;;;;;;5093039;28;20625;-75
2022/03/25 12:25:08;;;;;;;30.88;20.23;;;17.40;99.90;;;;;;5088529;28;20207;-75
2022/03/25 12:27:35;;;;;;;32.83;19.67;;;17.00;99.90;;;;;;5089440;28;20205;-75
2022/03/25 12:30:02;;;;;;;31.60;21.50;;;17.40;99.90;;;;;;5093092;28;20214;-75
2022/03/25 12:32:35;;;;;;;31.67;21.23;;;17.10;99.90;;;;;;5092197;28;20217;-75
2022/03/25 12:35:04;;;;;;;34.10;21.70;;;17.40;99.90;;;;;;5092789;28;20212;-75
2022/03/25 12:37:38;;;;;;;34.33;21.63;;;17.00;99.90;;;;;;5092133;28;20297;-75
2022/03/25 12:40:28;;;;;;;32.88;21.50;;;16.90;99.90;;;;;;5092033;28;20228;-75
2022/03/25 12:42:58;;;;;;;32.05;20.88;;;17.20;99.90;;;;;;5091503;28;20194;-75
2022/03/25 12:45:30;;;;;;;39.03;21.33;;;16.90;99.90;;;;;;5092754;28;20205;-75
2022/03/25 12:47:58;;;;;;;36.05;22.48;;;17.00;99.90;;;;;;5091817;28;20201;-75
2022/03/25 12:50:25;;;;;;;34.30;22.77;;;17.00;99.90;;;;;;5092607;28;20316;-75
2022/03/25 12:53:00;;;;;;;32.38;21.48;;;16.80;99.90;;;;;;5092443;28;20208;-74